Time;durP1;ratioP1;P1;durP2;ratioP2;P2;SDS_P1;SDS_P2;PMS_P1;PMS_P2;Temp;Humidity;BMP_temperature;BMP_pressure;BME280_temperature;BME280_humidity;BME280_pressure;Samples;Min_cycle;Max_cycle;Signal;HPM_P1;HPM_P2
2023/11/22 00:00:44;;;;;;;2.00;1.80;;;7.20;99.90;;;;;;5051560;28;20899;-75
2023/11/22 00:03:10;;;;;;;2.00;1.77;;;7.30;99.90;;;;;;5071249;28;20216;-75
2023/11/22 00:05:35;;;;;;;3.13;2.33;;;7.30;99.90;;;;;;5030135;28;20270;-75
2023/11/22 00:08:01;;;;;;;4.10;2.00;;;7.30;99.90;;;;;;5032979;28;20228;-74
2023/11/22 00:10:27;;;;;;;3.43;1.90;;;7.30;99.90;;;;;;5021667;28;20228;-75
2023/11/22 00:12:53;;;;;;;3.00;2.20;;;7.30;99.90;;;;;;5042976;28;20234;-74
2023/11/22 00:15:19;;;;;;;3.20;2.10;;;7.30;99.90;;;;;;5030573;28;20464;-75
2023/11/22 00:17:45;;;;;;;3.13;2.60;;;7.30;99.90;;;;;;5018278;28;20213;-75
2023/11/22 00:20:11;;;;;;;5.40;1.87;;;7.30;99.90;;;;;;5072359;28;20221;-74
2023/11/22 00:22:37;;;;;;;4.07;2.63;;;7.40;99.90;;;;;;5026839;28;20524;-75
2023/11/22 00:25:04;;;;;;;2.70;2.10;;;7.30;99.90;;;;;;5065699;28;20447;-75
2023/11/22 00:27:31;;;;;;;2.33;1.90;;;7.30;99.90;;;;;;5043453;28;20223;-75
2023/11/22 00:29:57;;;;;;;3.90;2.90;;;7.30;99.90;;;;;;5043132;28;20464;-75
2023/11/22 00:32:24;;;;;;;2.17;2.00;;;7.40;99.90;;;;;;5028457;28;20474;-75
2023/11/22 00:34:49;;;;;;;2.70;1.83;;;7.30;99.90;;;;;;5065414;28;20454;-74
2023/11/22 00:37:15;;;;;;;3.10;2.20;;;7.30;99.90;;;;;;5041795;28;20469;-74
2023/11/22 00:39:42;;;;;;;3.73;2.33;;;7.30;99.90;;;;;;5067814;28;20257;-76
2023/11/22 00:42:08;;;;;;;2.67;1.90;;;7.30;99.90;;;;;;5045689;28;20561;-74
2023/11/22 00:44:36;;;;;;;3.60;2.60;;;7.30;99.90;;;;;;5016371;28;20224;-75
2023/11/22 00:47:02;;;;;;;2.57;2.23;;;7.20;99.90;;;;;;5052266;28;20471;-75
2023/11/22 00:49:28;;;;;;;3.70;2.87;;;7.20;99.90;;;;;;5051257;28;20455;-75
2023/11/22 00:51:53;;;;;;;2.47;2.27;;;7.20;99.90;;;;;;5027923;28;20829;-75
2023/11/22 00:54:19;;;;;;;4.97;2.80;;;7.20;99.90;;;;;;5024167;28;20272;-75
2023/11/22 00:56:46;;;;;;;3.87;2.20;;;7.30;99.90;;;;;;5043214;28;20216;-75
2023/11/22 00:59:13;;;;;;;2.73;2.27;;;7.20;99.90;;;;;;5028401;28;20466;-75
2023/11/22 01:01:40;;;;;;;3.30;2.50;;;7.20;99.90;;;;;;5041027;28;20468;-75
2023/11/22 01:04:07;;;;;;;5.53;3.13;;;7.10;99.90;;;;;;5050602;28;20534;-75
2023/11/22 01:06:34;;;;;;;3.87;2.90;;;7.10;99.90;;;;;;5052865;28;20465;-75
2023/11/22 01:09:00;;;;;;;3.03;2.50;;;7.10;99.90;;;;;;5039005;28;20864;-75
2023/11/22 01:11:26;;;;;;;2.90;2.30;;;7.10;99.90;;;;;;5048190;28;20464;-75
2023/11/22 01:13:51;;;;;;;3.27;2.30;;;7.00;99.90;;;;;;5050937;28;20698;-75
2023/11/22 01:16:17;;;;;;;3.13;2.10;;;7.00;99.90;;;;;;5013926;28;20698;-75
2023/11/22 01:18:45;;;;;;;5.63;2.50;;;6.90;99.90;;;;;;5056672;28;20227;-75
2023/11/22 01:21:11;;;;;;;2.37;2.17;;;6.80;99.90;;;;;;5047533;28;20220;-75
2023/11/22 01:23:37;;;;;;;2.70;2.50;;;6.80;99.90;;;;;;5034507;28;20443;-75
2023/11/22 01:26:03;;;;;;;5.93;2.63;;;6.60;99.90;;;;;;5039460;28;20275;-75
2023/11/22 01:28:29;;;;;;;2.07;1.93;;;6.50;99.90;;;;;;5030842;28;20709;-76
2023/11/22 01:30:55;;;;;;;2.20;2.00;;;6.50;99.90;;;;;;5017038;28;20224;-75
2023/11/22 01:33:23;;;;;;;3.30;2.30;;;6.40;99.90;;;;;;5048127;28;20451;-73
2023/11/22 01:35:52;;;;;;;3.03;2.37;;;6.30;99.90;;;;;;5051451;28;20446;-75
2023/11/22 01:38:18;;;;;;;3.07;2.80;;;6.30;99.90;;;;;;5049952;28;20446;-75
2023/11/22 01:40:45;;;;;;;3.17;2.23;;;6.20;99.90;;;;;;5041791;28;20520;-75
2023/11/22 01:43:18;;;;;;;4.33;2.10;;;6.10;99.90;;;;;;5039021;28;20216;-75
2023/11/22 01:45:44;;;;;;;3.07;2.23;;;6.10;99.90;;;;;;5039938;28;20465;-75
2023/11/22 01:48:11;;;;;;;2.47;2.27;;;6.00;99.90;;;;;;5042465;28;21027;-75
2023/11/22 01:50:42;;;;;;;2.63;2.20;;;6.10;99.90;;;;;;5047696;28;20384;-75
2023/11/22 01:53:10;;;;;;;4.37;2.93;;;6.20;99.90;;;;;;5069432;28;20458;-75
2023/11/22 01:55:36;;;;;;;2.97;2.30;;;6.30;99.90;;;;;;5044994;28;20474;-75
2023/11/22 01:58:03;;;;;;;4.30;2.80;;;6.30;99.90;;;;;;5053751;28;20836;-75
2023/11/22 02:00:35;;;;;;;3.00;2.70;;;6.40;99.90;;;;;;5050067;28;20224;-76
2023/11/22 02:03:02;;;;;;;3.77;2.80;;;6.30;99.90;;;;;;5043564;28;20971;-75
2023/11/22 02:05:28;;;;;;;4.67;2.30;;;6.20;99.90;;;;;;5066730;28;20556;-75
2023/11/22 02:07:54;;;;;;;2.40;2.20;;;6.10;99.90;;;;;;5037923;28;20545;-75
2023/11/22 02:10:20;;;;;;;3.90;2.83;;;6.10;99.90;;;;;;5047898;28;20216;-75
2023/11/22 02:12:46;;;;;;;2.43;2.10;;;5.90;99.90;;;;;;5044709;28;20438;-75
2023/11/22 02:15:12;;;;;;;5.40;2.30;;;5.90;99.90;;;;;;5050633;28;20527;-75
2023/11/22 02:17:39;;;;;;;7.73;3.00;;;5.90;99.90;;;;;;5014682;28;20230;-74
2023/11/22 02:20:08;;;;;;;6.00;2.67;;;5.80;99.90;;;;;;5017385;28;20224;-74
2023/11/22 02:22:41;;;;;;;3.13;2.43;;;5.80;99.90;;;;;;5053713;28;21022;-75
2023/11/22 02:25:07;;;;;;;7.30;3.00;;;5.80;99.90;;;;;;5041750;28;20488;-75
2023/11/22 02:27:33;;;;;;;2.70;2.10;;;5.70;99.90;;;;;;5028142;28;20900;-74
2023/11/22 02:29:59;;;;;;;3.13;2.13;;;5.80;99.90;;;;;;5055539;28;20231;-74
2023/11/22 02:32:24;;;;;;;3.77;2.33;;;5.80;99.90;;;;;;5067697;28;20242;-75
2023/11/22 02:34:51;;;;;;;2.40;2.20;;;5.70;99.90;;;;;;5034316;28;20249;-75
2023/11/22 02:37:17;;;;;;;2.33;2.10;;;5.80;99.90;;;;;;5032941;28;20446;-75
2023/11/22 02:39:54;;;;;;;5.00;2.60;;;5.70;99.90;;;;;;5044895;28;20519;-74
2023/11/22 02:42:19;;;;;;;4.40;2.50;;;5.70;99.90;;;;;;5028974;28;20236;-75
2023/11/22 02:44:45;;;;;;;3.77;2.23;;;5.60;99.90;;;;;;5033362;28;20454;-74
2023/11/22 02:47:11;;;;;;;3.03;2.73;;;5.60;99.90;;;;;;5050364;28;20229;-75
2023/11/22 02:49:36;;;;;;;3.23;2.07;;;5.70;99.90;;;;;;5050639;28;20301;-74
2023/11/22 02:52:02;;;;;;;4.33;2.67;;;5.70;99.90;;;;;;5049593;28;20219;-74
2023/11/22 02:54:28;;;;;;;2.80;2.37;;;5.80;99.90;;;;;;5065673;28;20276;-74
2023/11/22 02:56:55;;;;;;;2.27;2.00;;;5.80;99.90;;;;;;5050964;28;20219;-75
2023/11/22 02:59:21;;;;;;;2.67;2.07;;;5.80;99.90;;;;;;5045161;28;20223;-74
2023/11/22 03:01:46;;;;;;;4.00;2.90;;;5.80;99.90;;;;;;5047494;28;20531;-74
2023/11/22 03:04:12;;;;;;;6.80;3.20;;;5.70;99.90;;;;;;5038960;28;20223;-75
2023/11/22 03:06:38;;;;;;;2.37;2.17;;;5.60;99.90;;;;;;5043558;28;20232;-74
2023/11/22 03:09:04;;;;;;;3.90;2.50;;;5.60;99.90;;;;;;5054104;28;20223;-76
2023/11/22 03:11:30;;;;;;;2.67;2.17;;;5.50;99.90;;;;;;5039199;28;20231;-74
2023/11/22 03:13:55;;;;;;;3.20;2.70;;;5.50;99.90;;;;;;5072598;28;20511;-74
2023/11/22 03:16:21;;;;;;;4.07;3.07;;;5.50;99.90;;;;;;5044076;28;20238;-75
2023/11/22 03:18:47;;;;;;;3.10;2.50;;;5.50;99.90;;;;;;5042350;28;20373;-75
2023/11/22 03:21:12;;;;;;;3.20;2.57;;;5.50;99.90;;;;;;5044728;28;20820;-75
2023/11/22 03:23:40;;;;;;;4.20;2.60;;;5.60;99.90;;;;;;5033957;28;20213;-74
2023/11/22 03:26:06;;;;;;;3.53;2.63;;;5.50;99.90;;;;;;5049676;28;20223;-74
2023/11/22 03:28:33;;;;;;;5.03;2.73;;;5.50;99.90;;;;;;5067134;28;20454;-75
2023/11/22 03:30:59;;;;;;;6.27;2.60;;;5.50;99.90;;;;;;5048888;28;20223;-75
2023/11/22 03:33:24;;;;;;;2.67;2.30;;;5.50;99.90;;;;;;5030087;28;20971;-74
2023/11/22 03:35:50;;;;;;;6.07;2.60;;;5.40;99.90;;;;;;5020426;28;20440;-75
2023/11/22 03:38:16;;;;;;;2.57;2.37;;;5.50;99.90;;;;;;5038931;28;20694;-74
2023/11/22 03:40:42;;;;;;;2.40;2.03;;;5.50;99.90;;;;;;5034745;28;20669;-74
2023/11/22 03:43:10;;;;;;;4.57;2.47;;;5.50;99.90;;;;;;5051884;28;20459;-74
2023/11/22 03:45:35;;;;;;;2.60;2.40;;;5.50;99.90;;;;;;5020837;28;20215;-74
2023/11/22 03:48:01;;;;;;;3.30;2.50;;;5.50;99.90;;;;;;5036854;28;20465;-74
2023/11/22 03:50:27;;;;;;;2.53;2.30;;;5.50;99.90;;;;;;5048069;28;20216;-75
2023/11/22 03:52:52;;;;;;;3.40;2.33;;;5.50;99.90;;;;;;5051237;28;20251;-75
2023/11/22 03:55:18;;;;;;;3.50;2.60;;;5.40;99.90;;;;;;5070826;28;20265;-74
2023/11/22 03:57:44;;;;;;;2.57;2.33;;;5.30;99.90;;;;;;5038745;28;20266;-74
2023/11/22 04:00:10;;;;;;;4.00;2.33;;;5.30;99.90;;;;;;5047385;28;20220;-74
2023/11/22 04:02:39;;;;;;;4.40;2.43;;;5.40;99.90;;;;;;5060465;28;20240;-75
2023/11/22 04:05:06;;;;;;;4.20;2.83;;;5.40;99.90;;;;;;5027518;28;21010;-75
2023/11/22 04:07:33;;;;;;;4.57;2.13;;;5.40;99.90;;;;;;5059815;28;20519;-74
2023/11/22 04:09:59;;;;;;;3.23;2.23;;;5.30;99.90;;;;;;5052206;28;20454;-74
2023/11/22 04:12:24;;;;;;;3.50;2.40;;;5.20;99.90;;;;;;5052437;28;20549;-75
2023/11/22 04:14:51;;;;;;;3.43;2.23;;;5.20;99.90;;;;;;5047868;28;20298;-74
2023/11/22 04:17:18;;;;;;;2.77;2.37;;;5.20;99.90;;;;;;5066094;28;20220;-75
2023/11/22 04:19:43;;;;;;;3.53;2.47;;;5.20;99.90;;;;;;5070289;28;20832;-74
2023/11/22 04:22:10;;;;;;;2.80;2.43;;;5.10;99.90;;;;;;5049038;28;20455;-74
2023/11/22 04:24:36;;;;;;;3.67;2.93;;;5.10;99.90;;;;;;5071159;28;20208;-75
2023/11/22 04:27:02;;;;;;;2.73;2.03;;;5.20;99.90;;;;;;5046451;28;20475;-75
2023/11/22 04:29:28;;;;;;;3.83;2.80;;;5.20;99.90;;;;;;5048942;28;20242;-74
2023/11/22 04:31:53;;;;;;;3.57;2.00;;;5.20;99.90;;;;;;5070350;28;20545;-75
2023/11/22 04:34:20;;;;;;;4.90;2.80;;;5.10;99.90;;;;;;5043078;28;20210;-74
2023/11/22 04:36:46;;;;;;;3.10;2.67;;;5.10;99.90;;;;;;5063041;28;20212;-75
2023/11/22 04:39:13;;;;;;;4.53;2.70;;;5.10;99.90;;;;;;5052148;28;20834;-75
2023/11/22 04:41:38;;;;;;;9.97;2.23;;;5.10;99.90;;;;;;5051167;28;20470;-75
2023/11/22 04:44:04;;;;;;;3.70;2.27;;;5.00;99.90;;;;;;5052778;28;20492;-74
2023/11/22 04:46:30;;;;;;;3.90;2.70;;;5.10;99.90;;;;;;5075562;28;20231;-75
2023/11/22 04:48:57;;;;;;;1.97;1.87;;;5.10;99.90;;;;;;5081910;28;20976;-74
2023/11/22 04:51:24;;;;;;;2.70;1.90;;;5.00;99.90;;;;;;5032935;28;20273;-74
2023/11/22 04:53:51;;;;;;;2.53;1.90;;;5.00;99.90;;;;;;5050911;28;20446;-75
2023/11/22 04:56:17;;;;;;;3.87;2.70;;;4.90;99.90;;;;;;5072723;28;20485;-75
2023/11/22 04:58:42;;;;;;;2.30;2.10;;;4.80;99.90;;;;;;5070422;28;20477;-74
2023/11/22 05:01:09;;;;;;;2.37;2.00;;;4.90;99.90;;;;;;5062351;28;20657;-74
2023/11/22 05:03:35;;;;;;;2.80;1.87;;;4.90;99.90;;;;;;5069595;28;20266;-75
2023/11/22 05:06:01;;;;;;;2.67;2.30;;;4.90;99.90;;;;;;5032581;28;20446;-74
2023/11/22 05:08:27;;;;;;;2.70;2.00;;;4.80;99.90;;;;;;5054414;28;20282;-75
2023/11/22 05:10:53;;;;;;;2.73;2.50;;;4.80;99.90;;;;;;5033489;28;20459;-75
2023/11/22 05:13:18;;;;;;;2.80;2.30;;;4.80;99.90;;;;;;5069066;28;20446;-75
2023/11/22 05:15:44;;;;;;;3.30;2.37;;;4.90;99.90;;;;;;5074212;28;20234;-74
2023/11/22 05:18:09;;;;;;;2.50;2.30;;;4.80;99.90;;;;;;5038359;28;20219;-74
2023/11/22 05:20:35;;;;;;;2.77;2.17;;;4.80;99.90;;;;;;5044020;28;20346;-74
2023/11/22 05:23:01;;;;;;;2.97;2.30;;;4.70;99.90;;;;;;5034801;28;20301;-74
2023/11/22 05:25:27;;;;;;;3.93;2.57;;;4.70;99.90;;;;;;5066447;28;20222;-74
2023/11/22 05:27:52;;;;;;;4.37;2.53;;;4.80;99.90;;;;;;5032506;28;20233;-75
2023/11/22 05:30:18;;;;;;;5.13;2.70;;;4.80;99.90;;;;;;5050358;28;20258;-74
2023/11/22 05:32:44;;;;;;;3.10;2.73;;;4.80;99.90;;;;;;5069619;28;20249;-74
2023/11/22 05:35:09;;;;;;;2.70;2.17;;;4.80;99.90;;;;;;5051785;28;20219;-74
2023/11/22 05:37:36;;;;;;;2.93;2.63;;;4.80;99.90;;;;;;5046191;28;20239;-74
2023/11/22 05:40:04;;;;;;;5.50;3.23;;;4.70;99.90;;;;;;5051357;28;20226;-74
2023/11/22 05:42:30;;;;;;;3.83;2.80;;;4.70;99.90;;;;;;5047228;28;20462;-74
2023/11/22 05:44:56;;;;;;;3.10;2.60;;;4.60;99.90;;;;;;5023183;28;20536;-74
2023/11/22 05:47:22;;;;;;;3.27;2.37;;;4.60;99.90;;;;;;5062295;28;20980;-74
2023/11/22 05:49:48;;;;;;;3.70;2.27;;;4.60;99.90;;;;;;5077772;28;20445;-74
2023/11/22 05:52:13;;;;;;;2.80;2.33;;;4.60;99.90;;;;;;5036890;28;20220;-74
2023/11/22 05:54:39;;;;;;;1.90;1.70;;;4.50;99.90;;;;;;5039726;28;20637;-74
2023/11/22 05:57:05;;;;;;;4.13;2.83;;;4.40;99.90;;;;;;5031696;28;20576;-74
2023/11/22 05:59:30;;;;;;;4.37;2.47;;;4.40;99.90;;;;;;5066694;28;20712;-72
2023/11/22 06:01:56;;;;;;;2.30;1.87;;;4.40;99.90;;;;;;5057914;28;20317;-75
2023/11/22 06:04:22;;;;;;;3.50;2.50;;;4.30;99.90;;;;;;5050950;28;20243;-74
2023/11/22 06:06:47;;;;;;;3.57;2.77;;;4.30;99.90;;;;;;5065914;28;20227;-75
2023/11/22 06:09:14;;;;;;;2.40;2.20;;;4.20;99.90;;;;;;5065251;28;20215;-74
2023/11/22 06:11:40;;;;;;;3.87;2.13;;;4.10;99.90;;;;;;5039396;28;20220;-74
2023/11/22 06:14:06;;;;;;;4.80;3.13;;;4.00;99.90;;;;;;5054738;28;20471;-74
2023/11/22 06:16:32;;;;;;;4.17;2.30;;;4.10;99.90;;;;;;5056132;28;20216;-74
2023/11/22 06:18:58;;;;;;;4.60;2.50;;;4.00;99.90;;;;;;5067388;28;20835;-75
2023/11/22 06:21:26;;;;;;;4.13;2.50;;;4.10;99.90;;;;;;5058340;28;20458;-74
2023/11/22 06:23:55;;;;;;;5.70;2.60;;;4.10;99.90;;;;;;5037419;28;20204;-74
2023/11/22 06:26:21;;;;;;;5.67;3.13;;;4.00;99.90;;;;;;5049564;28;20454;-74
2023/11/22 06:28:49;;;;;;;5.83;2.53;;;4.10;99.90;;;;;;5046901;28;20449;-74
2023/11/22 06:31:15;;;;;;;4.47;2.87;;;4.20;99.90;;;;;;5042261;28;20228;-74
2023/11/22 06:33:40;;;;;;;4.47;3.00;;;4.20;99.90;;;;;;5017522;28;20441;-75
2023/11/22 06:36:06;;;;;;;3.97;2.50;;;4.20;99.90;;;;;;5067980;28;20215;-75
2023/11/22 06:38:32;;;;;;;3.70;3.00;;;4.10;99.90;;;;;;5049504;28;20215;-73
2023/11/22 06:40:58;;;;;;;4.77;2.93;;;4.20;99.90;;;;;;5033654;28;20454;-74
2023/11/22 06:43:23;;;;;;;3.70;2.40;;;4.20;99.90;;;;;;5047232;28;20224;-74
2023/11/22 06:45:50;;;;;;;3.20;2.90;;;4.20;99.90;;;;;;5064719;28;20311;-74
2023/11/22 06:48:16;;;;;;;2.80;2.27;;;4.20;99.90;;;;;;5046092;28;20228;-74
2023/11/22 06:50:42;;;;;;;5.90;2.87;;;4.10;99.90;;;;;;5045631;28;20454;-73
2023/11/22 06:53:08;;;;;;;3.20;2.63;;;4.20;99.90;;;;;;5044268;28;20459;-74
2023/11/22 06:55:33;;;;;;;3.60;2.07;;;4.20;99.90;;;;;;5066013;28;20216;-74
2023/11/22 06:57:59;;;;;;;2.43;1.90;;;4.20;99.90;;;;;;5041932;28;20725;-74
2023/11/22 07:00:27;;;;;;;3.67;2.17;;;4.10;99.90;;;;;;5019754;28;20212;-75
2023/11/22 07:02:56;;;;;;;3.00;2.10;;;4.10;99.90;;;;;;5040456;28;20307;-76
2023/11/22 07:05:22;;;;;;;4.50;2.53;;;4.10;99.90;;;;;;5019463;28;20459;-74
2023/11/22 07:07:49;;;;;;;1.97;1.77;;;4.00;99.90;;;;;;5037179;28;20487;-75
2023/11/22 07:10:15;;;;;;;1.90;1.60;;;3.90;99.90;;;;;;5043117;28;20451;-75
2023/11/22 07:12:43;;;;;;;2.03;1.83;;;4.10;99.90;;;;;;5027115;28;20467;-74
2023/11/22 07:15:09;;;;;;;3.03;2.73;;;4.10;99.90;;;;;;5019166;28;20241;-75
2023/11/22 07:17:35;;;;;;;2.70;2.43;;;4.10;99.90;;;;;;5020950;28;20473;-73
2023/11/22 07:20:01;;;;;;;3.07;2.60;;;4.10;99.90;;;;;;5039209;28;20455;-74
2023/11/22 07:22:26;;;;;;;5.27;2.43;;;4.20;99.90;;;;;;5012594;28;20228;-73
2023/11/22 07:24:59;;;;;;;5.40;2.67;;;4.20;99.90;;;;;;5057751;28;20212;-74
2023/11/22 07:27:25;;;;;;;3.93;2.43;;;4.20;99.90;;;;;;5042185;28;20467;-74
2023/11/22 07:29:52;;;;;;;3.43;2.27;;;4.10;99.90;;;;;;5029395;28;20476;-74
2023/11/22 07:32:20;;;;;;;3.57;2.37;;;4.20;99.90;;;;;;5027400;28;20470;-74
2023/11/22 07:34:46;;;;;;;5.53;2.67;;;4.20;99.90;;;;;;5059582;28;20482;-74
2023/11/22 07:37:12;;;;;;;3.97;2.60;;;4.30;99.90;;;;;;5025237;28;20463;-73
2023/11/22 07:39:39;;;;;;;4.00;3.03;;;4.40;99.90;;;;;;5011774;28;20244;-74
2023/11/22 07:42:08;;;;;;;3.67;2.80;;;4.40;99.90;;;;;;5028881;28;20463;-74
2023/11/22 07:44:37;;;;;;;3.30;2.30;;;4.50;99.90;;;;;;5027548;28;20459;-74
2023/11/22 07:47:07;;;;;;;5.07;2.47;;;4.50;99.90;;;;;;5023160;28;20467;-75
2023/11/22 07:49:36;;;;;;;3.30;2.67;;;4.50;99.90;;;;;;5024717;28;20540;-73
2023/11/22 07:52:02;;;;;;;3.70;2.63;;;4.50;99.90;;;;;;5044473;28;20546;-74
2023/11/22 07:54:30;;;;;;;3.10;2.40;;;4.50;99.90;;;;;;5012601;28;20451;-74
2023/11/22 07:56:55;;;;;;;3.53;2.67;;;4.50;99.90;;;;;;5041614;28;20542;-76
2023/11/22 07:59:21;;;;;;;4.27;2.17;;;4.50;99.90;;;;;;5042723;28;20531;-74
2023/11/22 08:01:50;;;;;;;6.30;2.80;;;4.40;99.90;;;;;;5026341;28;20636;-74
2023/11/22 08:04:19;;;;;;;4.30;3.27;;;4.50;99.90;;;;;;5027295;28;20260;-74
2023/11/22 08:06:45;;;;;;;5.07;2.63;;;4.50;99.90;;;;;;5014820;28;20452;-75
2023/11/22 08:09:11;;;;;;;4.73;2.60;;;4.50;99.90;;;;;;5043486;28;20463;-74
2023/11/22 08:11:37;;;;;;;7.13;3.40;;;4.40;99.90;;;;;;5030324;28;20530;-74
2023/11/22 08:14:03;;;;;;;3.63;2.17;;;4.40;99.90;;;;;;5023692;28;20220;-74
2023/11/22 08:16:28;;;;;;;3.57;2.47;;;4.40;99.90;;;;;;5042520;28;20212;-74
2023/11/22 08:18:56;;;;;;;3.80;2.33;;;4.40;99.90;;;;;;5025532;28;20807;-75
2023/11/22 08:21:23;;;;;;;3.13;2.60;;;4.40;99.90;;;;;;5008924;28;20648;-74
2023/11/22 08:23:48;;;;;;;3.50;2.20;;;4.30;99.90;;;;;;5045019;28;20447;-74
2023/11/22 08:26:14;;;;;;;4.40;2.87;;;4.30;99.90;;;;;;5041140;28;20459;-75
2023/11/22 08:28:40;;;;;;;2.90;2.30;;;4.40;99.90;;;;;;5026035;28;20243;-75
2023/11/22 08:31:09;;;;;;;4.90;2.63;;;4.40;99.90;;;;;;5011229;28;20235;-74
2023/11/22 08:33:35;;;;;;;4.23;2.80;;;4.40;99.90;;;;;;5023771;28;20450;-75
2023/11/22 08:36:02;;;;;;;5.37;2.63;;;4.40;99.90;;;;;;5041754;28;20457;-75
2023/11/22 08:38:28;;;;;;;4.23;3.53;;;4.50;99.90;;;;;;5045227;28;20540;-73
2023/11/22 08:40:55;;;;;;;6.30;2.80;;;4.50;99.90;;;;;;5036728;28;20545;-74
2023/11/22 08:43:23;;;;;;;4.67;2.80;;;4.30;99.90;;;;;;5031603;28;20232;-74
2023/11/22 08:45:52;;;;;;;4.67;2.53;;;4.30;99.90;;;;;;5028790;28;20470;-73
2023/11/22 08:48:17;;;;;;;3.40;2.17;;;4.30;99.90;;;;;;5045043;28;20466;-74
2023/11/22 08:50:44;;;;;;;3.97;2.20;;;4.30;99.90;;;;;;5066339;28;20466;-74
2023/11/22 08:53:10;;;;;;;2.90;1.93;;;4.30;99.90;;;;;;5050954;28;20297;-74
2023/11/22 08:55:36;;;;;;;2.73;2.20;;;4.20;99.90;;;;;;5034569;28;20542;-72
2023/11/22 08:58:01;;;;;;;2.77;2.17;;;4.30;99.90;;;;;;5023960;28;20265;-74
2023/11/22 09:00:28;;;;;;;3.07;1.90;;;4.30;99.90;;;;;;5036566;28;20224;-74
2023/11/22 09:02:57;;;;;;;3.47;2.60;;;4.20;99.90;;;;;;5050778;28;20227;-74
2023/11/22 09:05:23;;;;;;;2.97;2.53;;;4.20;99.90;;;;;;5027551;28;21015;-75
2023/11/22 09:07:50;;;;;;;3.00;1.73;;;4.10;99.90;;;;;;5025401;28;20487;-74
2023/11/22 09:10:18;;;;;;;9.73;2.60;;;4.10;99.90;;;;;;5037099;28;20223;-74
2023/11/22 09:12:44;;;;;;;2.93;2.30;;;4.10;99.90;;;;;;5020948;28;20509;-75
2023/11/22 09:15:12;;;;;;;6.40;2.87;;;4.10;99.90;;;;;;5047186;28;20474;-72
2023/11/22 09:17:43;;;;;;;5.87;2.43;;;4.20;99.90;;;;;;5043307;28;20463;-75
2023/11/22 09:20:18;;;;;;;4.00;2.70;;;4.20;99.90;;;;;;5049688;28;20476;-73
2023/11/22 09:22:54;;;;;;;5.03;2.90;;;4.30;99.90;;;;;;5025946;28;20455;-74
2023/11/22 09:25:20;;;;;;;5.80;2.13;;;4.30;99.90;;;;;;5041498;28;20944;-72
2023/11/22 09:27:47;;;;;;;3.23;2.60;;;4.30;99.90;;;;;;5041563;28;20466;-74
2023/11/22 09:30:32;;;;;;;3.07;2.10;;;4.30;99.90;;;;;;5056857;28;20220;-74
2023/11/22 09:33:11;;;;;;;3.67;2.60;;;4.40;99.90;;;;;;5040554;28;20462;-72
2023/11/22 09:35:39;;;;;;;3.60;2.27;;;4.50;99.90;;;;;;5047291;28;20469;-73
2023/11/22 09:38:11;;;;;;;3.40;2.13;;;4.40;99.90;;;;;;5027261;28;20470;-71
2023/11/22 09:40:41;;;;;;;2.33;2.00;;;4.40;99.90;;;;;;5028947;28;20500;-74
2023/11/22 09:43:07;;;;;;;2.73;1.93;;;4.40;99.90;;;;;;5071560;28;20469;-74
2023/11/22 09:45:33;;;;;;;3.63;2.17;;;4.40;99.90;;;;;;5048196;28;20458;-75
2023/11/22 09:48:00;;;;;;;4.37;2.00;;;4.60;99.90;;;;;;5046530;28;20604;-74
2023/11/22 09:50:43;;;;;;;4.23;2.57;;;4.50;99.90;;;;;;5063688;28;20243;-74
2023/11/22 09:53:25;;;;;;;2.90;1.57;;;4.60;99.90;;;;;;5064666;28;20469;-74
2023/11/22 09:55:51;;;;;;;3.93;2.83;;;4.50;99.90;;;;;;5042619;28;20469;-74
2023/11/22 09:58:17;;;;;;;3.57;2.17;;;4.40;99.90;;;;;;5064490;28;20474;-73
2023/11/22 10:00:43;;;;;;;3.40;2.23;;;4.30;99.90;;;;;;5041265;28;20301;-74
2023/11/22 10:03:12;;;;;;;3.67;1.93;;;4.30;99.90;;;;;;5059349;28;20608;-74
2023/11/22 10:05:41;;;;;;;3.80;2.47;;;4.40;99.90;;;;;;5024761;28;20244;-73
2023/11/22 10:08:09;;;;;;;2.03;1.70;;;4.50;99.90;;;;;;5045695;28;20473;-74
2023/11/22 10:10:36;;;;;;;4.53;2.03;;;4.40;99.90;;;;;;5046281;28;20469;-74
2023/11/22 10:13:03;;;;;;;3.73;2.13;;;4.30;99.90;;;;;;5048030;28;20550;-74
2023/11/22 10:15:29;;;;;;;3.50;2.20;;;4.40;99.90;;;;;;5044409;28;20589;-72
2023/11/22 10:18:02;;;;;;;3.57;2.47;;;4.50;99.90;;;;;;5046064;28;20465;-74
2023/11/22 10:20:39;;;;;;;3.30;1.80;;;4.50;99.90;;;;;;5043793;28;20980;-74
2023/11/22 10:23:09;;;;;;;3.20;2.30;;;4.60;99.90;;;;;;5045574;28;20450;-74
2023/11/22 10:25:36;;;;;;;2.70;2.23;;;4.60;99.90;;;;;;5058151;28;20536;-74
2023/11/22 10:28:02;;;;;;;4.50;2.67;;;4.60;99.90;;;;;;5028783;28;20516;-74
2023/11/22 10:30:28;;;;;;;4.30;2.23;;;4.60;99.90;;;;;;5063123;28;20466;-74
2023/11/22 10:32:55;;;;;;;3.47;2.00;;;4.70;99.90;;;;;;5043603;28;20216;-73
2023/11/22 10:35:22;;;;;;;3.03;2.10;;;4.80;99.90;;;;;;5044572;28;20484;-72
2023/11/22 10:37:48;;;;;;;2.47;1.90;;;4.70;99.90;;;;;;5042735;28;20454;-74
2023/11/22 10:40:15;;;;;;;3.87;1.83;;;4.80;99.90;;;;;;5045490;28;20493;-73
2023/11/22 10:42:43;;;;;;;3.33;2.40;;;4.90;99.90;;;;;;5044956;28;20508;-74
2023/11/22 10:45:09;;;;;;;2.90;2.03;;;4.90;99.90;;;;;;5031504;28;20480;-75
2023/11/22 10:47:39;;;;;;;3.33;2.40;;;4.80;99.90;;;;;;5048148;28;20497;-75
2023/11/22 10:50:08;;;;;;;4.30;2.63;;;4.70;99.90;;;;;;5029624;28;20454;-74
2023/11/22 10:52:38;;;;;;;2.77;1.83;;;4.70;99.90;;;;;;5044141;28;20458;-75
2023/11/22 10:55:08;;;;;;;6.37;2.63;;;4.60;99.90;;;;;;5062310;28;20701;-75
2023/11/22 10:57:43;;;;;;;4.13;2.30;;;4.60;99.90;;;;;;5057223;28;20474;-75
2023/11/22 11:00:12;;;;;;;3.33;2.80;;;4.50;99.90;;;;;;5061159;28;20464;-75
2023/11/22 11:02:45;;;;;;;3.30;2.27;;;4.60;99.90;;;;;;5024198;28;20470;-75
2023/11/22 11:05:28;;;;;;;3.53;3.20;;;4.70;99.90;;;;;;5039158;28;20458;-74
2023/11/22 11:08:12;;;;;;;3.23;2.30;;;4.70;99.90;;;;;;5045095;28;20466;-74
2023/11/22 11:10:42;;;;;;;2.87;2.57;;;4.90;99.90;;;;;;5045772;28;20454;-74
2023/11/22 11:13:11;;;;;;;6.53;3.23;;;4.80;99.90;;;;;;5069097;28;20804;-75
2023/11/22 11:15:40;;;;;;;2.57;1.90;;;4.90;99.90;;;;;;5065353;28;20999;-74
2023/11/22 11:18:07;;;;;;;2.70;2.50;;;4.90;99.90;;;;;;5045178;28;20454;-75
2023/11/22 11:20:47;;;;;;;3.57;2.20;;;4.90;99.90;;;;;;5041596;28;20516;-74
2023/11/22 11:23:14;;;;;;;1.67;1.57;;;4.80;99.90;;;;;;5061595;28;20545;-74
2023/11/22 11:25:41;;;;;;;2.27;2.07;;;4.80;99.90;;;;;;5048627;28;20462;-75
2023/11/22 11:28:11;;;;;;;2.77;2.07;;;4.70;99.90;;;;;;5067819;28;20548;-74
2023/11/22 11:30:43;;;;;;;5.70;2.73;;;4.70;99.90;;;;;;5032250;28;20557;-75
2023/11/22 11:33:09;;;;;;;2.73;2.00;;;4.80;99.90;;;;;;5034992;28;20515;-75
2023/11/22 11:35:41;;;;;;;3.60;1.93;;;4.80;99.90;;;;;;5046468;28;20497;-74
2023/11/22 11:38:09;;;;;;;4.60;2.90;;;4.80;99.90;;;;;;5031916;28;20473;-74
2023/11/22 11:40:35;;;;;;;2.60;1.93;;;4.90;99.90;;;;;;5039814;28;20520;-75
2023/11/22 11:43:01;;;;;;;3.70;2.20;;;4.90;99.90;;;;;;5046586;28;20489;-75
2023/11/22 11:45:28;;;;;;;5.97;2.73;;;5.00;99.90;;;;;;5031950;28;20466;-73
2023/11/22 11:47:54;;;;;;;4.30;2.87;;;5.20;99.90;;;;;;5039474;28;20505;-75
2023/11/22 11:50:23;;;;;;;2.40;1.60;;;5.20;99.90;;;;;;5047385;28;20481;-74
2023/11/22 11:52:48;;;;;;;2.13;2.03;;;5.30;99.90;;;;;;5049745;28;20309;-73
2023/11/22 11:55:15;;;;;;;4.10;2.20;;;5.30;99.90;;;;;;5046746;28;20459;-76
2023/11/22 11:57:41;;;;;;;3.60;2.00;;;5.10;99.90;;;;;;5049737;28;20299;-75
2023/11/22 12:00:09;;;;;;;4.20;2.40;;;5.00;99.90;;;;;;5033653;28;20474;-75
2023/11/22 12:02:37;;;;;;;2.80;2.27;;;5.20;99.90;;;;;;5032552;28;21003;-75
2023/11/22 12:05:08;;;;;;;2.20;1.83;;;5.30;99.90;;;;;;5014509;28;20468;-74
2023/11/22 12:07:35;;;;;;;2.53;1.90;;;5.50;99.90;;;;;;5046317;28;20227;-74
2023/11/22 12:10:01;;;;;;;3.80;2.00;;;5.60;99.90;;;;;;5027533;28;20474;-75
2023/11/22 12:12:28;;;;;;;2.50;2.00;;;5.70;99.90;;;;;;5048144;28;20491;-75
2023/11/22 12:14:56;;;;;;;4.60;2.50;;;5.70;99.90;;;;;;5037822;28;20221;-74
2023/11/22 12:17:22;;;;;;;3.23;2.70;;;5.80;99.90;;;;;;5033276;28;20964;-75
2023/11/22 12:19:48;;;;;;;3.00;2.23;;;5.80;99.90;;;;;;5050787;28;20500;-75
2023/11/22 12:22:16;;;;;;;3.53;2.53;;;6.00;99.90;;;;;;5068560;28;20561;-74
2023/11/22 12:24:45;;;;;;;3.17;2.50;;;6.00;99.90;;;;;;5063591;28;20511;-75
2023/11/22 12:27:11;;;;;;;3.43;2.90;;;6.00;99.90;;;;;;5064737;28;20477;-75
2023/11/22 12:29:37;;;;;;;3.10;2.27;;;5.90;99.90;;;;;;5048393;28;20515;-74
2023/11/22 12:32:03;;;;;;;3.50;2.30;;;5.80;99.90;;;;;;5050220;28;20219;-75
2023/11/22 12:34:30;;;;;;;2.87;2.27;;;5.80;99.90;;;;;;5043803;28;20550;-75
2023/11/22 12:36:56;;;;;;;3.50;2.70;;;5.90;99.90;;;;;;5048128;28;20964;-75
2023/11/22 12:39:22;;;;;;;3.50;2.27;;;5.90;99.90;;;;;;5031497;28;20456;-75
2023/11/22 12:41:50;;;;;;;3.70;2.43;;;5.90;99.90;;;;;;5049569;28;20722;-75
2023/11/22 12:44:17;;;;;;;4.43;2.50;;;5.90;99.90;;;;;;5032824;28;20466;-75
2023/11/22 12:46:49;;;;;;;3.57;2.70;;;5.90;99.90;;;;;;5063678;28;21038;-75
2023/11/22 12:49:18;;;;;;;3.53;2.00;;;6.00;99.90;;;;;;5065794;28;20454;-74
2023/11/22 12:51:52;;;;;;;4.13;2.53;;;6.10;99.90;;;;;;5047295;28;20538;-75
2023/11/22 12:54:21;;;;;;;3.93;2.43;;;6.20;99.90;;;;;;5030855;28;20461;-75
2023/11/22 12:56:49;;;;;;;3.07;2.50;;;6.20;99.90;;;;;;5068434;28;20450;-75